sensor_id;sensor_type;location;lat;lon;timestamp;noise_LAeq;noise_LA_min;noise_LA_max;noise_LA01;noise_LA95
11999;Laerm;40817;51.520;9.954;2023-02-15T00:00:06;43.42;39.92;46.13;;
11999;Laerm;40817;51.520;9.954;2023-02-15T00:02:34;43.33;39.92;44.97;;
11999;Laerm;40817;51.520;9.954;2023-02-15T00:05:02;43.20;40.33;44.83;;
11999;Laerm;40817;51.520;9.954;2023-02-15T00:07:30;43.36;40.43;45.04;;
11999;Laerm;40817;51.520;9.954;2023-02-15T00:09:58;43.48;39.70;49.78;;
11999;Laerm;40817;51.520;9.954;2023-02-15T00:12:26;43.77;40.33;50.04;;
11999;Laerm;40817;51.520;9.954;2023-02-15T00:14:53;44.08;40.71;46.20;;
11999;Laerm;40817;51.520;9.954;2023-02-15T00:17:22;46.09;42.47;55.03;;
11999;Laerm;40817;51.520;9.954;2023-02-15T00:19:50;44.19;41.68;48.61;;
11999;Laerm;40817;51.520;9.954;2023-02-15T00:22:18;44.93;41.22;53.96;;
11999;Laerm;40817;51.520;9.954;2023-02-15T00:24:46;43.91;40.98;48.57;;
11999;Laerm;40817;51.520;9.954;2023-02-15T00:27:13;43.72;40.53;45.48;;
11999;Laerm;40817;51.520;9.954;2023-02-15T00:29:41;46.49;42.16;58.17;;
11999;Laerm;40817;51.520;9.954;2023-02-15T00:32:09;45.50;39.92;56.41;;
11999;Laerm;40817;51.520;9.954;2023-02-15T00:34:38;43.58;40.23;45.66;;
11999;Laerm;40817;51.520;9.954;2023-02-15T00:37:05;43.92;40.62;47.57;;
11999;Laerm;40817;51.520;9.954;2023-02-15T00:39:33;44.24;40.98;53.43;;
11999;Laerm;40817;51.520;9.954;2023-02-15T00:42:01;44.04;40.53;47.48;;
11999;Laerm;40817;51.520;9.954;2023-02-15T00:44:29;43.40;40.43;50.04;;
11999;Laerm;40817;51.520;9.954;2023-02-15T00:46:57;43.82;38.52;54.92;;
11999;Laerm;40817;51.520;9.954;2023-02-15T00:49:25;42.85;37.88;44.87;;
11999;Laerm;40817;51.520;9.954;2023-02-15T00:51:54;43.42;39.21;45.51;;
11999;Laerm;40817;51.520;9.954;2023-02-15T00:54:21;43.15;37.32;45.04;;
11999;Laerm;40817;51.520;9.954;2023-02-15T00:56:49;43.76;39.08;45.66;;
11999;Laerm;40817;51.520;9.954;2023-02-15T00:59:17;42.84;38.95;44.97;;
11999;Laerm;40817;51.520;9.954;2023-02-15T01:01:44;42.83;38.21;45.45;;
11999;Laerm;40817;51.520;9.954;2023-02-15T01:04:12;43.94;40.13;48.90;;
11999;Laerm;40817;51.520;9.954;2023-02-15T01:06:39;43.64;40.08;45.91;;
11999;Laerm;40817;51.520;9.954;2023-02-15T01:09:09;43.97;41.38;45.63;;
11999;Laerm;40817;51.520;9.954;2023-02-15T01:11:36;43.69;39.92;45.60;;
11999;Laerm;40817;51.520;9.954;2023-02-15T01:14:04;42.68;39.46;44.73;;
11999;Laerm;40817;51.520;9.954;2023-02-15T01:16:33;43.91;39.92;46.76;;
11999;Laerm;40817;51.520;9.954;2023-02-15T01:19:06;44.12;40.98;46.87;;
11999;Laerm;40817;51.520;9.954;2023-02-15T01:21:34;43.15;38.81;45.70;;
11999;Laerm;40817;51.520;9.954;2023-02-15T01:24:02;42.78;39.08;44.87;;
11999;Laerm;40817;51.520;9.954;2023-02-15T01:26:30;42.79;39.70;44.90;;
11999;Laerm;40817;51.520;9.954;2023-02-15T01:28:58;44.19;40.43;51.22;;
11999;Laerm;40817;51.520;9.954;2023-02-15T01:31:25;43.58;40.53;45.63;;
11999;Laerm;40817;51.520;9.954;2023-02-15T01:33:53;45.45;40.62;51.94;;
11999;Laerm;40817;51.520;9.954;2023-02-15T01:36:20;42.91;39.21;44.80;;
11999;Laerm;40817;51.520;9.954;2023-02-15T01:38:48;46.24;40.03;53.90;;
11999;Laerm;40817;51.520;9.954;2023-02-15T01:41:16;43.79;40.43;48.70;;
11999;Laerm;40817;51.520;9.954;2023-02-15T01:43:58;43.50;40.53;45.75;;
11999;Laerm;40817;51.520;9.954;2023-02-15T01:46:33;42.98;39.46;45.33;;
11999;Laerm;40817;51.520;9.954;2023-02-15T01:49:09;43.38;39.81;45.77;;
11999;Laerm;40817;51.520;9.954;2023-02-15T01:51:42;43.93;40.43;47.84;;
11999;Laerm;40817;51.520;9.954;2023-02-15T01:54:18;44.57;40.03;52.79;;
11999;Laerm;40817;51.520;9.954;2023-02-15T01:56:51;43.14;39.92;45.31;;
11999;Laerm;40817;51.520;9.954;2023-02-15T01:59:22;44.20;40.98;47.65;;
11999;Laerm;40817;51.520;9.954;2023-02-15T02:01:52;44.92;41.06;52.32;;
11999;Laerm;40817;51.520;9.954;2023-02-15T02:04:31;43.42;39.89;45.89;;
11999;Laerm;40817;51.520;9.954;2023-02-15T02:06:58;42.99;39.34;45.60;;
11999;Laerm;40817;51.520;9.954;2023-02-15T02:09:27;44.43;40.13;48.46;;
11999;Laerm;40817;51.520;9.954;2023-02-15T02:11:55;43.22;39.81;45.42;;
11999;Laerm;40817;51.520;9.954;2023-02-15T02:14:24;42.93;39.58;45.04;;
11999;Laerm;40817;51.520;9.954;2023-02-15T02:16:58;44.20;40.80;47.86;;
11999;Laerm;40817;51.520;9.954;2023-02-15T02:20:21;42.97;39.58;45.11;;
11999;Laerm;40817;51.520;9.954;2023-02-15T02:23:19;42.69;38.67;44.83;;
11999;Laerm;40817;51.520;9.954;2023-02-15T02:26:59;42.83;38.81;49.34;;
11999;Laerm;40817;51.520;9.954;2023-02-15T02:30:33;42.55;38.52;44.76;;
11999;Laerm;40817;51.520;9.954;2023-02-15T02:33:41;43.86;39.58;50.97;;
11999;Laerm;40817;51.520;9.954;2023-02-15T02:36:25;43.64;38.37;51.42;;
11999;Laerm;40817;51.520;9.954;2023-02-15T02:39:19;42.96;39.81;58.64;;
11999;Laerm;40817;51.520;9.954;2023-02-15T02:42:00;43.15;39.58;45.48;;
11999;Laerm;40817;51.520;9.954;2023-02-15T02:44:37;44.66;39.57;55.61;;
11999;Laerm;40817;51.520;9.954;2023-02-15T02:47:15;44.50;39.46;53.84;;
11999;Laerm;40817;51.520;9.954;2023-02-15T02:49:47;42.55;38.67;45.01;;
11999;Laerm;40817;51.520;9.954;2023-02-15T02:52:42;43.32;39.34;49.93;;
11999;Laerm;40817;51.520;9.954;2023-02-15T02:55:17;43.14;39.34;50.11;;
11999;Laerm;40817;51.520;9.954;2023-02-15T02:57:54;42.62;38.67;45.48;;
11999;Laerm;40817;51.520;9.954;2023-02-15T03:00:27;45.35;39.81;55.79;;
11999;Laerm;40817;51.520;9.954;2023-02-15T03:03:03;44.21;40.33;50.81;;
11999;Laerm;40817;51.520;9.954;2023-02-15T03:05:37;43.01;39.46;47.59;;
11999;Laerm;40817;51.520;9.954;2023-02-15T03:08:07;43.31;39.34;45.30;;
11999;Laerm;40817;51.520;9.954;2023-02-15T03:10:38;44.45;39.70;53.14;;
11999;Laerm;40817;51.520;9.954;2023-02-15T03:13:07;43.00;39.21;45.36;;
11999;Laerm;40817;51.520;9.954;2023-02-15T03:15:39;45.11;40.71;54.34;;
11999;Laerm;40817;51.520;9.954;2023-02-15T03:18:33;44.05;40.71;50.29;;
11999;Laerm;40817;51.520;9.954;2023-02-15T03:21:06;44.74;40.03;54.26;;
11999;Laerm;40817;51.520;9.954;2023-02-15T03:23:36;42.79;39.21;45.14;;
11999;Laerm;40817;51.520;9.954;2023-02-15T03:26:06;42.80;39.70;45.17;;
11999;Laerm;40817;51.520;9.954;2023-02-15T03:28:41;42.97;38.95;48.88;;
11999;Laerm;40817;51.520;9.954;2023-02-15T03:31:12;43.35;39.21;50.50;;
11999;Laerm;40817;51.520;9.954;2023-02-15T03:33:49;43.04;39.57;51.33;;
11999;Laerm;40817;51.520;9.954;2023-02-15T03:36:24;42.93;38.81;44.83;;
11999;Laerm;40817;51.520;9.954;2023-02-15T03:39:05;42.73;39.46;44.76;;
11999;Laerm;40817;51.520;9.954;2023-02-15T03:41:42;42.95;39.92;45.17;;
11999;Laerm;40817;51.520;9.954;2023-02-15T03:44:16;44.59;40.62;53.13;;
11999;Laerm;40817;51.520;9.954;2023-02-15T03:46:52;43.14;39.81;45.14;;
11999;Laerm;40817;51.520;9.954;2023-02-15T03:49:30;43.07;39.81;44.92;;
11999;Laerm;40817;51.520;9.954;2023-02-15T03:52:02;42.97;39.58;44.87;;
11999;Laerm;40817;51.520;9.954;2023-02-15T03:54:34;42.80;39.58;45.01;;
11999;Laerm;40817;51.520;9.954;2023-02-15T03:57:18;47.00;40.13;57.54;;
11999;Laerm;40817;51.520;9.954;2023-02-15T04:00:12;43.26;38.81;45.75;;
11999;Laerm;40817;51.520;9.954;2023-02-15T04:03:23;43.04;40.13;45.20;;
11999;Laerm;40817;51.520;9.954;2023-02-15T04:06:14;43.27;39.34;48.52;;
11999;Laerm;40817;51.520;9.954;2023-02-15T04:09:03;43.06;39.81;45.42;;
11999;Laerm;40817;51.520;9.954;2023-02-15T04:11:49;43.29;39.46;47.40;;
11999;Laerm;40817;51.520;9.954;2023-02-15T04:14:16;43.15;38.67;47.00;;
11999;Laerm;40817;51.520;9.954;2023-02-15T04:17:05;43.78;37.88;50.63;;
11999;Laerm;40817;51.520;9.954;2023-02-15T04:19:33;44.27;40.43;47.79;;
11999;Laerm;40817;51.520;9.954;2023-02-15T04:22:20;43.41;40.53;45.48;;
11999;Laerm;40817;51.520;9.954;2023-02-15T04:25:07;43.89;39.08;47.96;;
11999;Laerm;40817;51.520;9.954;2023-02-15T04:27:38;43.36;40.13;45.27;;
11999;Laerm;40817;51.520;9.954;2023-02-15T04:30:09;43.34;40.33;45.23;;
11999;Laerm;40817;51.520;9.954;2023-02-15T04:32:41;44.28;39.92;51.70;;
11999;Laerm;40817;51.520;9.954;2023-02-15T04:35:09;43.50;40.53;45.14;;
11999;Laerm;40817;51.520;9.954;2023-02-15T04:37:41;43.56;40.43;45.45;;
11999;Laerm;40817;51.520;9.954;2023-02-15T04:40:14;43.91;40.53;52.05;;
11999;Laerm;40817;51.520;9.954;2023-02-15T04:42:48;43.54;40.62;45.66;;
11999;Laerm;40817;51.520;9.954;2023-02-15T04:45:16;44.13;41.06;49.69;;
11999;Laerm;40817;51.520;9.954;2023-02-15T04:47:44;43.72;40.80;45.39;;
11999;Laerm;40817;51.520;9.954;2023-02-15T04:50:12;44.60;41.22;50.35;;
11999;Laerm;40817;51.520;9.954;2023-02-15T04:52:40;43.68;40.80;45.77;;
11999;Laerm;40817;51.520;9.954;2023-02-15T04:55:09;44.11;40.43;47.68;;
11999;Laerm;40817;51.520;9.954;2023-02-15T04:57:37;44.19;41.14;48.83;;
11999;Laerm;40817;51.520;9.954;2023-02-15T05:00:07;43.97;40.71;52.15;;
11999;Laerm;40817;51.520;9.954;2023-02-15T05:02:35;43.50;40.53;45.23;;
11999;Laerm;40817;51.520;9.954;2023-02-15T05:05:04;43.70;40.89;45.33;;
11999;Laerm;40817;51.520;9.954;2023-02-15T05:07:33;44.54;41.53;50.52;;
11999;Laerm;40817;51.520;9.954;2023-02-15T05:10:01;43.85;40.96;50.11;;
11999;Laerm;40817;51.520;9.954;2023-02-15T05:12:30;43.50;40.03;45.27;;
11999;Laerm;40817;51.520;9.954;2023-02-15T05:14:58;44.17;40.98;47.53;;
11999;Laerm;40817;51.520;9.954;2023-02-15T05:17:26;44.11;40.53;45.75;;
11999;Laerm;40817;51.520;9.954;2023-02-15T05:19:54;45.15;41.48;53.14;;
11999;Laerm;40817;51.520;9.954;2023-02-15T05:22:22;45.71;40.71;57.48;;
11999;Laerm;40817;51.520;9.954;2023-02-15T05:24:49;44.06;40.53;51.81;;
11999;Laerm;40817;51.520;9.954;2023-02-15T05:27:36;44.53;40.71;51.50;;
11999;Laerm;40817;51.520;9.954;2023-02-15T05:30:21;44.74;41.48;50.43;;
11999;Laerm;40817;51.520;9.954;2023-02-15T05:32:49;45.04;40.13;54.37;;
11999;Laerm;40817;51.520;9.954;2023-02-15T05:35:18;44.34;40.71;65.92;;
11999;Laerm;40817;51.520;9.954;2023-02-15T05:37:46;44.21;40.53;48.21;;
11999;Laerm;40817;51.520;9.954;2023-02-15T05:40:19;43.68;40.53;45.91;;
11999;Laerm;40817;51.520;9.954;2023-02-15T05:42:49;44.42;41.22;59.28;;
11999;Laerm;40817;51.520;9.954;2023-02-15T05:45:17;44.04;41.46;53.28;;
11999;Laerm;40817;51.520;9.954;2023-02-15T05:47:46;43.97;41.06;51.70;;
11999;Laerm;40817;51.520;9.954;2023-02-15T05:50:14;44.38;40.71;54.84;;
11999;Laerm;40817;51.520;9.954;2023-02-15T05:52:42;44.18;41.41;55.64;;
11999;Laerm;40817;51.520;9.954;2023-02-15T05:55:09;44.09;41.38;54.18;;
11999;Laerm;40817;51.520;9.954;2023-02-15T05:57:37;43.64;40.80;53.16;;
11999;Laerm;40817;51.520;9.954;2023-02-15T06:00:08;43.71;40.43;46.76;;
11999;Laerm;40817;51.520;9.954;2023-02-15T06:02:37;44.43;41.14;52.79;;
11999;Laerm;40817;51.520;9.954;2023-02-15T06:05:06;44.49;40.98;53.72;;
11999;Laerm;40817;51.520;9.954;2023-02-15T06:07:34;45.22;40.89;59.05;;
11999;Laerm;40817;51.520;9.954;2023-02-15T06:10:01;46.68;40.36;61.94;;
11999;Laerm;40817;51.520;9.954;2023-02-15T06:12:29;43.88;40.98;56.13;;
11999;Laerm;40817;51.520;9.954;2023-02-15T06:14:57;44.71;39.92;60.38;;
11999;Laerm;40817;51.520;9.954;2023-02-15T06:17:26;43.89;39.58;48.71;;
11999;Laerm;40817;51.520;9.954;2023-02-15T06:19:53;44.08;40.33;57.47;;
11999;Laerm;40817;51.520;9.954;2023-02-15T06:22:21;43.94;40.71;54.02;;
11999;Laerm;40817;51.520;9.954;2023-02-15T06:24:48;44.07;41.06;49.78;;
11999;Laerm;40817;51.520;9.954;2023-02-15T06:27:16;44.31;41.11;59.22;;
11999;Laerm;40817;51.520;9.954;2023-02-15T06:29:43;44.88;41.30;51.39;;
11999;Laerm;40817;51.520;9.954;2023-02-15T06:32:11;44.63;41.38;59.21;;
11999;Laerm;40817;51.520;9.954;2023-02-15T06:34:40;46.00;41.68;57.42;;
11999;Laerm;40817;51.520;9.954;2023-02-15T06:37:07;43.86;40.89;46.78;;
11999;Laerm;40817;51.520;9.954;2023-02-15T06:39:35;44.33;41.22;55.65;;
11999;Laerm;40817;51.520;9.954;2023-02-15T06:42:03;44.18;41.14;53.64;;
11999;Laerm;40817;51.520;9.954;2023-02-15T06:44:30;44.65;40.80;53.68;;
11999;Laerm;40817;51.520;9.954;2023-02-15T06:46:57;44.19;41.14;53.34;;
11999;Laerm;40817;51.520;9.954;2023-02-15T06:49:25;44.57;41.61;59.40;;
11999;Laerm;40817;51.520;9.954;2023-02-15T06:51:54;44.58;40.71;56.04;;
11999;Laerm;40817;51.520;9.954;2023-02-15T06:54:21;44.44;41.14;52.16;;
11999;Laerm;40817;51.520;9.954;2023-02-15T06:56:49;44.43;41.30;54.43;;
11999;Laerm;40817;51.520;9.954;2023-02-15T06:59:17;60.29;41.68;77.99;;
11999;Laerm;40817;51.520;9.954;2023-02-15T07:01:44;46.30;42.09;64.61;;
11999;Laerm;40817;51.520;9.954;2023-02-15T07:04:12;44.82;41.89;53.43;;
11999;Laerm;40817;51.520;9.954;2023-02-15T07:06:39;45.74;42.29;54.98;;
11999;Laerm;40817;51.520;9.954;2023-02-15T07:09:08;44.41;42.03;48.94;;
11999;Laerm;40817;51.520;9.954;2023-02-15T07:11:36;44.48;42.22;51.71;;
11999;Laerm;40817;51.520;9.954;2023-02-15T07:14:21;44.87;42.03;51.24;;
11999;Laerm;40817;51.520;9.954;2023-02-15T07:16:49;44.79;42.16;56.81;;
11999;Laerm;40817;51.520;9.954;2023-02-15T07:19:16;45.56;42.41;56.84;;
11999;Laerm;40817;51.520;9.954;2023-02-15T07:21:44;45.15;42.93;57.70;;
11999;Laerm;40817;51.520;9.954;2023-02-15T07:24:13;46.62;42.09;60.23;;
11999;Laerm;40817;51.520;9.954;2023-02-15T07:26:41;45.84;41.68;62.18;;
11999;Laerm;40817;51.520;9.954;2023-02-15T07:29:08;46.38;42.59;60.26;;
11999;Laerm;40817;51.520;9.954;2023-02-15T07:31:35;45.82;42.47;56.62;;
11999;Laerm;40817;51.520;9.954;2023-02-15T07:34:04;44.93;41.68;54.76;;
11999;Laerm;40817;51.520;9.954;2023-02-15T07:36:32;44.32;41.75;48.80;;
11999;Laerm;40817;51.520;9.954;2023-02-15T07:38:59;44.77;42.22;51.83;;
11999;Laerm;40817;51.520;9.954;2023-02-15T07:41:28;44.64;41.89;59.44;;
11999;Laerm;40817;51.520;9.954;2023-02-15T07:43:56;45.34;41.46;62.88;;
11999;Laerm;40817;51.520;9.954;2023-02-15T07:46:23;45.13;42.35;53.09;;
11999;Laerm;40817;51.520;9.954;2023-02-15T07:48:51;44.70;42.03;51.62;;
11999;Laerm;40817;51.520;9.954;2023-02-15T07:51:19;45.40;42.35;53.86;;
11999;Laerm;40817;51.520;9.954;2023-02-15T07:53:46;45.25;42.53;54.94;;
11999;Laerm;40817;51.520;9.954;2023-02-15T07:56:15;50.16;43.04;73.94;;
11999;Laerm;40817;51.520;9.954;2023-02-15T07:58:44;46.07;43.04;55.10;;
11999;Laerm;40817;51.520;9.954;2023-02-15T08:01:21;45.93;42.41;58.24;;
11999;Laerm;40817;51.520;9.954;2023-02-15T08:03:49;45.19;42.93;50.62;;
11999;Laerm;40817;51.520;9.954;2023-02-15T08:06:17;46.99;43.04;55.97;;
11999;Laerm;40817;51.520;9.954;2023-02-15T08:08:45;45.53;43.09;52.95;;
11999;Laerm;40817;51.520;9.954;2023-02-15T08:11:22;47.12;43.04;56.08;;
11999;Laerm;40817;51.520;9.954;2023-02-15T08:13:59;45.38;41.38;56.19;;
11999;Laerm;40817;51.520;9.954;2023-02-15T08:16:33;45.13;42.47;57.04;;
11999;Laerm;40817;51.520;9.954;2023-02-15T08:19:05;46.06;42.53;61.71;;
11999;Laerm;40817;51.520;9.954;2023-02-15T08:21:35;46.48;42.85;63.87;;
11999;Laerm;40817;51.520;9.954;2023-02-15T08:24:05;47.27;43.04;61.08;;
11999;Laerm;40817;51.520;9.954;2023-02-15T08:26:35;45.44;42.22;51.50;;
11999;Laerm;40817;51.520;9.954;2023-02-15T08:29:06;45.92;42.82;54.25;;
11999;Laerm;40817;51.520;9.954;2023-02-15T08:31:35;45.15;42.65;50.82;;
11999;Laerm;40817;51.520;9.954;2023-02-15T08:34:04;45.24;42.22;52.83;;
11999;Laerm;40817;51.520;9.954;2023-02-15T08:36:32;44.99;42.19;59.16;;
11999;Laerm;40817;51.520;9.954;2023-02-15T08:39:04;45.15;42.59;51.01;;
11999;Laerm;40817;51.520;9.954;2023-02-15T08:41:35;45.05;42.58;49.57;;
11999;Laerm;40817;51.520;9.954;2023-02-15T08:44:07;45.08;42.35;50.07;;
11999;Laerm;40817;51.520;9.954;2023-02-15T08:46:41;45.15;42.22;51.09;;
11999;Laerm;40817;51.520;9.954;2023-02-15T08:49:12;45.10;42.82;50.43;;
11999;Laerm;40817;51.520;9.954;2023-02-15T08:51:40;45.16;42.29;52.68;;
11999;Laerm;40817;51.520;9.954;2023-02-15T08:54:11;45.31;42.65;54.70;;
11999;Laerm;40817;51.520;9.954;2023-02-15T08:56:42;45.99;42.88;53.13;;
11999;Laerm;40817;51.520;9.954;2023-02-15T08:59:16;46.89;42.82;58.78;;
11999;Laerm;40817;51.520;9.954;2023-02-15T09:01:45;45.79;43.09;51.97;;
11999;Laerm;40817;51.520;9.954;2023-02-15T09:04:13;46.08;43.09;54.56;;
11999;Laerm;40817;51.520;9.954;2023-02-15T09:06:44;48.20;42.65;61.74;;
11999;Laerm;40817;51.520;9.954;2023-02-15T09:09:12;46.32;43.04;57.14;;
11999;Laerm;40817;51.520;9.954;2023-02-15T09:11:42;46.47;42.98;53.54;;
11999;Laerm;40817;51.520;9.954;2023-02-15T09:14:14;45.96;41.96;54.02;;
11999;Laerm;40817;51.520;9.954;2023-02-15T09:16:45;45.43;42.82;52.19;;
11999;Laerm;40817;51.520;9.954;2023-02-15T09:19:15;45.53;42.69;55.11;;
11999;Laerm;40817;51.520;9.954;2023-02-15T09:21:43;45.41;42.47;51.24;;
11999;Laerm;40817;51.520;9.954;2023-02-15T09:24:14;45.94;43.04;59.08;;
11999;Laerm;40817;51.520;9.954;2023-02-15T09:26:46;46.00;42.98;57.20;;
11999;Laerm;40817;51.520;9.954;2023-02-15T09:29:17;46.73;43.09;58.43;;
11999;Laerm;40817;51.520;9.954;2023-02-15T09:31:48;47.68;43.29;60.04;;
11999;Laerm;40817;51.520;9.954;2023-02-15T09:34:20;46.65;43.49;54.08;;
11999;Laerm;40817;51.520;9.954;2023-02-15T09:36:49;46.17;41.68;58.57;;
11999;Laerm;40817;51.520;9.954;2023-02-15T09:39:20;45.65;42.47;53.30;;
11999;Laerm;40817;51.520;9.954;2023-02-15T09:45:39;46.15;42.53;60.31;;
11999;Laerm;40817;51.520;9.954;2023-02-15T09:48:35;46.26;42.82;57.64;;
11999;Laerm;40817;51.520;9.954;2023-02-15T09:51:36;46.22;41.96;56.78;;
11999;Laerm;40817;51.520;9.954;2023-02-15T09:54:34;45.67;42.65;56.50;;
11999;Laerm;40817;51.520;9.954;2023-02-15T09:57:10;46.07;42.76;55.52;;
11999;Laerm;40817;51.520;9.954;2023-02-15T09:59:50;45.59;42.16;52.19;;
11999;Laerm;40817;51.520;9.954;2023-02-15T10:02:41;47.20;42.35;57.66;;
11999;Laerm;40817;51.520;9.954;2023-02-15T10:05:26;55.22;43.49;69.69;;
11999;Laerm;40817;51.520;9.954;2023-02-15T10:08:32;56.93;45.77;66.71;;
11999;Laerm;40817;51.520;9.954;2023-02-15T10:11:13;58.48;44.76;75.44;;
11999;Laerm;40817;51.520;9.954;2023-02-15T10:14:34;48.91;43.29;58.12;;
11999;Laerm;40817;51.520;9.954;2023-02-15T10:17:24;45.52;42.59;61.25;;
11999;Laerm;40817;51.520;9.954;2023-02-15T10:20:12;45.94;42.71;58.83;;
11999;Laerm;40817;51.520;9.954;2023-02-15T10:23:08;47.28;43.34;54.63;;
11999;Laerm;40817;51.520;9.954;2023-02-15T10:25:46;45.41;42.65;65.97;;
11999;Laerm;40817;51.520;9.954;2023-02-15T10:28:19;45.04;42.47;57.21;;
11999;Laerm;40817;51.520;9.954;2023-02-15T10:30:50;45.25;42.09;55.43;;
11999;Laerm;40817;51.520;9.954;2023-02-15T10:33:39;45.65;42.16;59.72;;
11999;Laerm;40817;51.520;9.954;2023-02-15T10:36:24;45.07;42.76;53.59;;
11999;Laerm;40817;51.520;9.954;2023-02-15T10:39:01;45.64;42.53;55.42;;
11999;Laerm;40817;51.520;9.954;2023-02-15T10:41:41;46.05;42.71;54.12;;
11999;Laerm;40817;51.520;9.954;2023-02-15T10:44:34;56.46;42.82;75.08;;
11999;Laerm;40817;51.520;9.954;2023-02-15T10:47:39;48.21;42.59;61.21;;
11999;Laerm;40817;51.520;9.954;2023-02-15T10:50:24;50.50;43.34;64.33;;
11999;Laerm;40817;51.520;9.954;2023-02-15T10:53:09;45.50;42.35;51.59;;
11999;Laerm;40817;51.520;9.954;2023-02-15T10:55:54;45.66;42.09;56.03;;
11999;Laerm;40817;51.520;9.954;2023-02-15T10:58:42;45.84;42.59;61.60;;
11999;Laerm;40817;51.520;9.954;2023-02-15T11:01:22;53.75;44.43;64.52;;
11999;Laerm;40817;51.520;9.954;2023-02-15T11:04:35;51.13;43.14;65.08;;
11999;Laerm;40817;51.520;9.954;2023-02-15T11:07:16;46.71;42.93;56.16;;
11999;Laerm;40817;51.520;9.954;2023-02-15T11:09:49;45.77;42.59;51.67;;
11999;Laerm;40817;51.520;9.954;2023-02-15T11:12:24;45.55;42.71;54.19;;
11999;Laerm;40817;51.520;9.954;2023-02-15T11:15:00;45.02;42.35;51.28;;
11999;Laerm;40817;51.520;9.954;2023-02-15T11:17:37;44.97;42.19;54.12;;
11999;Laerm;40817;51.520;9.954;2023-02-15T11:20:18;44.93;42.35;57.20;;
11999;Laerm;40817;51.520;9.954;2023-02-15T11:22:49;45.38;41.96;53.66;;
11999;Laerm;40817;51.520;9.954;2023-02-15T11:25:24;45.82;42.53;55.34;;
11999;Laerm;40817;51.520;9.954;2023-02-15T11:27:52;45.21;42.65;50.02;;
11999;Laerm;40817;51.520;9.954;2023-02-15T11:30:24;45.87;42.03;65.48;;
11999;Laerm;40817;51.520;9.954;2023-02-15T11:32:55;55.79;42.47;83.60;;
11999;Laerm;40817;51.520;9.954;2023-02-15T11:35:31;50.68;43.19;73.94;;
11999;Laerm;40817;51.520;9.954;2023-02-15T11:38:11;46.82;42.82;56.14;;
11999;Laerm;40817;51.520;9.954;2023-02-15T11:40:47;49.99;42.71;76.16;;
11999;Laerm;40817;51.520;9.954;2023-02-15T11:43:22;49.99;42.29;75.14;;
11999;Laerm;40817;51.520;9.954;2023-02-15T11:45:51;48.09;42.29;74.41;;
11999;Laerm;40817;51.520;9.954;2023-02-15T11:48:19;45.57;42.41;63.10;;
11999;Laerm;40817;51.520;9.954;2023-02-15T11:50:48;45.79;41.96;62.17;;
11999;Laerm;40817;51.520;9.954;2023-02-15T11:53:20;47.34;41.82;66.03;;
11999;Laerm;40817;51.520;9.954;2023-02-15T11:55:51;47.25;42.88;71.20;;
11999;Laerm;40817;51.520;9.954;2023-02-15T11:58:37;46.79;42.29;60.96;;
11999;Laerm;40817;51.520;9.954;2023-02-15T12:01:14;45.72;42.88;53.89;;
11999;Laerm;40817;51.520;9.954;2023-02-15T12:03:47;45.91;42.53;58.61;;
11999;Laerm;40817;51.520;9.954;2023-02-15T12:06:25;50.97;42.22;64.86;;
11999;Laerm;40817;51.520;9.954;2023-02-15T12:09:06;47.76;42.71;62.47;;
11999;Laerm;40817;51.520;9.954;2023-02-15T12:11:40;45.11;42.59;52.89;;
11999;Laerm;40817;51.520;9.954;2023-02-15T12:14:10;45.14;42.16;64.51;;
11999;Laerm;40817;51.520;9.954;2023-02-15T12:16:44;45.11;42.16;51.09;;
11999;Laerm;40817;51.520;9.954;2023-02-15T12:19:32;44.83;42.29;49.43;;
11999;Laerm;40817;51.520;9.954;2023-02-15T12:22:04;45.11;41.38;52.74;;
11999;Laerm;40817;51.520;9.954;2023-02-15T12:24:43;45.54;42.19;69.60;;
11999;Laerm;40817;51.520;9.954;2023-02-15T12:27:16;45.57;42.53;65.95;;
11999;Laerm;40817;51.520;9.954;2023-02-15T12:29:48;47.75;42.09;59.42;;
11999;Laerm;40817;51.520;9.954;2023-02-15T12:32:22;45.00;41.89;58.36;;
11999;Laerm;40817;51.520;9.954;2023-02-15T12:34:54;49.40;42.41;61.00;;
11999;Laerm;40817;51.520;9.954;2023-02-15T12:37:26;46.67;42.29;57.82;;
11999;Laerm;40817;51.520;9.954;2023-02-15T12:39:59;45.34;42.76;69.41;;
11999;Laerm;40817;51.520;9.954;2023-02-15T12:42:41;46.83;42.41;59.78;;
11999;Laerm;40817;51.520;9.954;2023-02-15T12:45:28;45.12;41.53;57.00;;
11999;Laerm;40817;51.520;9.954;2023-02-15T12:48:16;44.95;41.30;57.27;;
11999;Laerm;40817;51.520;9.954;2023-02-15T12:50:48;44.60;41.46;57.83;;
11999;Laerm;40817;51.520;9.954;2023-02-15T12:53:19;45.25;40.80;69.59;;
11999;Laerm;40817;51.520;9.954;2023-02-15T12:55:56;45.10;41.53;55.15;;
11999;Laerm;40817;51.520;9.954;2023-02-15T12:58:26;45.18;42.65;53.44;;
11999;Laerm;40817;51.520;9.954;2023-02-15T13:01:12;45.58;42.47;53.73;;
11999;Laerm;40817;51.520;9.954;2023-02-15T13:03:57;45.22;41.06;58.34;;
11999;Laerm;40817;51.520;9.954;2023-02-15T13:06:48;49.49;41.82;58.62;;
11999;Laerm;40817;51.520;9.954;2023-02-15T13:09:26;45.57;42.22;57.99;;
11999;Laerm;40817;51.520;9.954;2023-02-15T13:12:21;47.28;42.41;60.27;;
11999;Laerm;40817;51.520;9.954;2023-02-15T13:14:53;48.65;42.35;70.24;;
11999;Laerm;40817;51.520;9.954;2023-02-15T13:17:26;47.82;42.59;59.49;;
11999;Laerm;40817;51.520;9.954;2023-02-15T13:19:59;45.69;42.59;63.77;;
11999;Laerm;40817;51.520;9.954;2023-02-15T13:22:38;45.16;41.61;50.18;;
11999;Laerm;40817;51.520;9.954;2023-02-15T13:25:17;45.06;41.46;54.78;;
11999;Laerm;40817;51.520;9.954;2023-02-15T13:27:52;44.81;42.65;51.94;;
11999;Laerm;40817;51.520;9.954;2023-02-15T13:30:27;45.02;42.09;61.75;;
11999;Laerm;40817;51.520;9.954;2023-02-15T13:33:02;45.28;42.47;59.17;;
11999;Laerm;40817;51.520;9.954;2023-02-15T13:35:39;45.29;42.65;62.69;;
11999;Laerm;40817;51.520;9.954;2023-02-15T13:39:02;45.48;42.16;62.90;;
11999;Laerm;40817;51.520;9.954;2023-02-15T13:41:48;44.92;41.06;63.95;;
11999;Laerm;40817;51.520;9.954;2023-02-15T13:47:34;44.87;42.41;52.41;;
11999;Laerm;40817;51.520;9.954;2023-02-15T13:50:31;45.39;42.24;53.99;;
11999;Laerm;40817;51.520;9.954;2023-02-15T13:53:25;45.38;42.65;50.89;;
11999;Laerm;40817;51.520;9.954;2023-02-15T13:56:01;45.82;41.96;53.91;;
11999;Laerm;40817;51.520;9.954;2023-02-15T13:59:19;45.18;41.53;55.46;;
11999;Laerm;40817;51.520;9.954;2023-02-15T14:01:57;44.66;41.75;54.85;;
11999;Laerm;40817;51.520;9.954;2023-02-15T14:04:58;44.71;42.35;51.50;;
11999;Laerm;40817;51.520;9.954;2023-02-15T14:07:56;44.93;42.00;59.16;;
11999;Laerm;40817;51.520;9.954;2023-02-15T14:10:53;44.77;42.16;52.45;;
11999;Laerm;40817;51.520;9.954;2023-02-15T14:14:05;45.12;41.38;55.07;;
11999;Laerm;40817;51.520;9.954;2023-02-15T14:16:51;44.89;42.16;58.06;;
11999;Laerm;40817;51.520;9.954;2023-02-15T14:19:30;45.57;42.19;53.77;;
11999;Laerm;40817;51.520;9.954;2023-02-15T14:22:12;45.53;41.89;57.69;;
11999;Laerm;40817;51.520;9.954;2023-02-15T14:24:46;46.10;42.65;59.64;;
11999;Laerm;40817;51.520;9.954;2023-02-15T14:27:27;44.83;41.89;51.23;;
11999;Laerm;40817;51.520;9.954;2023-02-15T14:30:13;47.07;42.47;58.19;;
11999;Laerm;40817;51.520;9.954;2023-02-15T14:32:48;44.81;41.22;54.60;;
11999;Laerm;40817;51.520;9.954;2023-02-15T14:35:20;44.99;41.61;55.99;;